Time;durP1;ratioP1;P1;durP2;ratioP2;P2;SDS_P1;SDS_P2;PMS_P1;PMS_P2;Temp;Humidity;BMP_temperature;BMP_pressure;BME280_temperature;BME280_humidity;BME280_pressure;Samples;Min_cycle;Max_cycle;Signal;HPM_P1;HPM_P2
2022/11/24 00:00:05;;;;;;;;;;;;;;;6.06;100.00;99725.28;6251976;22;19911;-80
2022/11/24 00:02:31;;;;;;;;;;;;;;;6.08;100.00;99718.06;6277192;22;19911;-79
2022/11/24 00:04:56;;;;;;;;;;;;;;;5.96;100.00;99729.81;6277344;22;19938;-81
2022/11/24 00:07:21;;;;;;;;;;;;;;;5.83;100.00;99718.81;6251962;22;19915;-79
2022/11/24 00:09:47;;;;;;;;;;;;;;;5.83;100.00;99718.81;6277968;22;20344;-81
2022/11/24 00:12:12;;;;;;;;;;;;;;;5.95;100.00;99713.19;6277605;22;19917;-80
2022/11/24 00:14:38;;;;;;;;;;;;;;;6.00;100.00;99716.19;6277581;22;19933;-81
2022/11/24 00:17:03;;;;;;;;;;;;;;;6.36;100.00;99718.75;6277516;22;19911;-80
2022/11/24 00:19:28;;;;;;;;;;;;;;;6.35;100.00;99723.19;6277545;22;20388;-80
2022/11/24 00:21:54;;;;;;;;;;;;;;;6.45;100.00;99723.09;6277432;22;19907;-79
2022/11/24 00:24:19;;;;;;;;;;;;;;;6.29;100.00;99731.72;6277399;22;19915;-81
2022/11/24 00:26:45;;;;;;;;;;;;;;;5.99;100.00;99740.03;6276746;22;19911;-80
2022/11/24 00:29:10;;;;;;;;;;;;;;;5.99;100.00;99734.75;6278121;22;19972;-79
2022/11/24 00:31:37;;;;;;;;;;;;;;;6.05;100.00;99736.78;6250441;22;20289;-82
2022/11/24 00:34:04;;;;;;;;;;;;;;;5.91;100.00;99739.94;6285207;22;19907;-81
2022/11/24 00:36:31;;;;;;;;;;;;;;;5.84;100.00;99746.75;6252611;22;19918;-80
2022/11/24 00:38:58;;;;;;;;;;;;;;;5.93;100.00;99749.31;6283900;22;19927;-79
2022/11/24 00:41:24;;;;;;;;;;;;;;;6.09;100.00;99751.28;6255080;22;19957;-81
2022/11/24 00:43:49;;;;;;;;;;;;;;;6.25;100.00;99740.88;6277710;22;19910;-82
2022/11/24 00:46:15;;;;;;;;;;;;;;;6.38;100.00;99743.94;6255705;22;20291;-81
2022/11/24 00:48:40;;;;;;;;;;;;;;;6.37;100.00;99741.44;6286157;22;19918;-81
2022/11/24 00:51:07;;;;;;;;;;;;;;;6.48;100.00;99742.03;6289539;22;19911;-80
2022/11/24 00:53:32;;;;;;;;;;;;;;;6.42;100.00;99747.91;6288137;22;19931;-79
2022/11/24 00:55:58;;;;;;;;;;;;;;;6.43;100.00;99743.47;6286207;22;19907;-81
2022/11/24 00:58:24;;;;;;;;;;;;;;;6.44;100.00;99745.13;6286548;22;20284;-80
2022/11/24 01:00:50;;;;;;;;;;;;;;;6.46;100.00;99754.53;6285393;22;19918;-80
2022/11/24 01:03:16;;;;;;;;;;;;;;;6.46;100.00;99751.91;6285915;22;19950;-80
2022/11/24 01:05:41;;;;;;;;;;;;;;;6.39;100.00;99757.94;6288782;22;19918;-82
2022/11/24 01:08:07;;;;;;;;;;;;;;;6.35;100.00;99762.66;6289200;22;19919;-79
2022/11/24 01:10:32;;;;;;;;;;;;;;;6.40;100.00;99765.66;6292776;22;19982;-78
2022/11/24 01:12:58;;;;;;;;;;;;;;;6.44;100.00;99772.25;6299470;22;19895;-82
2022/11/24 01:15:23;;;;;;;;;;;;;;;6.35;100.00;99780.25;6301190;22;19934;-80
2022/11/24 01:17:49;;;;;;;;;;;;;;;6.36;100.00;99797.72;6299341;22;19908;-80
2022/11/24 01:20:14;;;;;;;;;;;;;;;6.28;100.00;99793.19;6257946;22;19919;-82
2022/11/24 01:22:43;;;;;;;;;;;;;;;6.07;100.00;99806.66;6289299;22;19911;-79
2022/11/24 01:25:09;;;;;;;;;;;;;;;5.98;100.00;99812.84;6294685;22;19911;-80
2022/11/24 01:27:34;;;;;;;;;;;;;;;5.36;100.00;99811.00;6295120;22;19911;-82
2022/11/24 01:30:00;;;;;;;;;;;;;;;5.58;100.00;99810.59;6291927;22;19911;-80
2022/11/24 01:32:25;;;;;;;;;;;;;;;5.68;100.00;99816.59;6263328;22;19962;-80
2022/11/24 01:34:50;;;;;;;;;;;;;;;5.78;100.00;99820.97;6282097;22;20268;-81
2022/11/24 01:37:16;;;;;;;;;;;;;;;5.96;100.00;99822.69;6281405;22;19989;-81
2022/11/24 01:39:41;;;;;;;;;;;;;;;5.92;100.00;99825.75;6283233;22;19938;-79
2022/11/24 01:42:09;;;;;;;;;;;;;;;5.87;100.00;99835.88;6281727;22;19915;-79
2022/11/24 01:44:35;;;;;;;;;;;;;;;5.79;100.00;99841.88;6281735;22;20031;-81
2022/11/24 01:47:05;;;;;;;;;;;;;;;5.72;100.00;99841.63;6279995;22;19950;-78
2022/11/24 01:49:47;;;;;;;;;;;;;;;5.81;100.00;99841.69;6278480;22;19918;-79
2022/11/24 01:52:16;;;;;;;;;;;;;;;5.83;100.00;99853.75;6278410;22;19911;-81
2022/11/24 01:54:45;;;;;;;;;;;;;;;6.00;100.00;99873.19;6278838;22;19950;-79
2022/11/24 01:57:30;;;;;;;;;;;;;;;6.06;100.00;99872.59;6277696;22;19990;-79
2022/11/24 02:00:00;;;;;;;;;;;;;;;6.04;100.00;99892.94;6278030;22;19911;-80
2022/11/24 02:02:28;;;;;;;;;;;;;;;6.00;100.00;99895.03;6277726;22;19915;-83
2022/11/24 02:04:54;;;;;;;;;;;;;;;5.85;100.00;99908.81;6277446;22;19911;-82
2022/11/24 02:07:19;;;;;;;;;;;;;;;5.69;100.00;99915.53;6277712;22;19961;-79
2022/11/24 02:09:50;;;;;;;;;;;;;;;5.79;100.00;99917.28;6277814;22;19911;-81
2022/11/24 02:12:15;;;;;;;;;;;;;;;6.00;100.00;99921.34;6277421;22;19957;-82
2022/11/24 02:14:42;;;;;;;;;;;;;;;5.88;100.00;99911.16;6277303;22;19911;-78
2022/11/24 02:17:07;;;;;;;;;;;;;;;5.63;100.00;99913.47;6250433;22;20010;-80
2022/11/24 02:19:41;;;;;;;;;;;;;;;5.70;100.00;99911.91;6277264;22;19918;-79
2022/11/24 02:22:11;;;;;;;;;;;;;;;5.71;100.00;99918.84;6277716;22;19911;-80
2022/11/24 02:24:47;;;;;;;;;;;;;;;5.49;100.00;99921.84;6277244;22;19946;-81
2022/11/24 02:27:13;;;;;;;;;;;;;;;5.46;100.00;99919.50;6278608;22;19911;-81
2022/11/24 02:29:38;;;;;;;;;;;;;;;5.50;100.00;99928.75;6278937;22;19935;-79
2022/11/24 02:32:06;;;;;;;;;;;;;;;5.24;100.00;99926.91;6278898;22;19960;-79
2022/11/24 02:34:31;;;;;;;;;;;;;;;5.39;100.00;99928.09;6279035;22;19996;-85
2022/11/24 02:36:57;;;;;;;;;;;;;;;5.12;100.00;99918.38;6279461;22;19915;-80
2022/11/24 02:39:22;;;;;;;;;;;;;;;5.09;100.00;99916.84;6279218;22;19922;-80
2022/11/24 02:41:53;;;;;;;;;;;;;;;5.11;100.00;99921.94;6278807;22;19914;-80
2022/11/24 02:44:23;;;;;;;;;;;;;;;5.34;100.00;99912.75;6251782;22;19914;-82
2022/11/24 02:46:48;;;;;;;;;;;;;;;5.34;100.00;99910.13;6278914;22;19993;-79
2022/11/24 02:49:15;;;;;;;;;;;;;;;5.25;100.00;99908.38;6251744;22;19945;-81
2022/11/24 02:51:40;;;;;;;;;;;;;;;5.03;100.00;99911.34;6278350;22;19911;-78
2022/11/24 02:54:05;;;;;;;;;;;;;;;4.99;100.00;99905.53;6278680;22;19990;-82
2022/11/24 02:56:31;;;;;;;;;;;;;;;5.05;100.00;99906.78;6278693;22;19911;-79
2022/11/24 02:58:56;;;;;;;;;;;;;;;5.05;100.00;99917.28;6278336;22;19991;-79
2022/11/24 03:01:22;;;;;;;;;;;;;;;4.72;100.00;99925.59;6278194;22;19915;-80
2022/11/24 03:03:47;;;;;;;;;;;;;;;4.80;100.00;99920.50;6278290;22;19915;-81
2022/11/24 03:06:13;;;;;;;;;;;;;;;5.02;100.00;99923.63;6278980;22;19996;-80
2022/11/24 03:08:38;;;;;;;;;;;;;;;4.94;100.00;99926.13;6278061;22;19915;-79
2022/11/24 03:11:03;;;;;;;;;;;;;;;4.95;100.00;99926.97;6278305;22;19918;-81
2022/11/24 03:13:29;;;;;;;;;;;;;;;5.12;100.00;99928.88;6278284;22;19935;-79
2022/11/24 03:15:54;;;;;;;;;;;;;;;5.06;100.00;99937.31;6278580;22;19935;-79
2022/11/24 03:18:19;;;;;;;;;;;;;;;5.08;100.00;99938.81;6278305;22;20391;-82
2022/11/24 03:20:45;;;;;;;;;;;;;;;5.12;100.00;99931.50;6251025;22;19918;-83
2022/11/24 03:23:11;;;;;;;;;;;;;;;5.10;100.00;99930.81;6279288;22;19943;-82
2022/11/24 03:25:36;;;;;;;;;;;;;;;5.00;100.00;99927.38;6282177;22;19949;-82
2022/11/24 03:28:02;;;;;;;;;;;;;;;5.10;100.00;99915.06;6278747;22;19965;-80
2022/11/24 03:30:27;;;;;;;;;;;;;;;5.04;100.00;99916.44;6278460;22;20291;-82
2022/11/24 03:32:53;;;;;;;;;;;;;;;4.88;100.00;99912.75;6278556;22;19998;-81
2022/11/24 03:35:22;;;;;;;;;;;;;;;4.93;100.00;99918.41;6278630;22;19915;-79
2022/11/24 03:37:47;;;;;;;;;;;;;;;5.00;100.00;99915.09;6280383;22;20404;-78
2022/11/24 03:40:13;;;;;;;;;;;;;;;4.83;100.00;99914.97;6280691;22;19985;-80
2022/11/24 03:42:38;;;;;;;;;;;;;;;4.99;100.00;99917.84;6292355;22;19938;-79
2022/11/24 03:45:04;;;;;;;;;;;;;;;4.96;100.00;99918.13;6290803;22;19911;-78
2022/11/24 03:47:30;;;;;;;;;;;;;;;5.02;100.00;99913.13;6290028;22;19915;-80
2022/11/24 03:49:55;;;;;;;;;;;;;;;4.94;100.00;99906.94;6285976;22;19911;-78
2022/11/24 03:52:20;;;;;;;;;;;;;;;4.93;100.00;99913.16;6285865;22;19914;-79
2022/11/24 03:54:46;;;;;;;;;;;;;;;4.85;100.00;99913.03;6281352;22;19918;-78
2022/11/24 03:57:12;;;;;;;;;;;;;;;5.03;100.00;99914.81;6277656;22;20355;-79
2022/11/24 03:59:38;;;;;;;;;;;;;;;4.92;100.00;99916.75;6251195;22;19954;-81
2022/11/24 04:02:03;;;;;;;;;;;;;;;4.73;100.00;99916.78;6278435;22;19914;-80
2022/11/24 04:04:28;;;;;;;;;;;;;;;4.68;100.00;99923.25;6278385;22;19911;-78
2022/11/24 04:06:54;;;;;;;;;;;;;;;4.60;100.00;99910.03;6278295;22;19990;-82
2022/11/24 04:09:19;;;;;;;;;;;;;;;4.71;100.00;99913.47;6278259;22;19915;-83
2022/11/24 04:14:28;;;;;;;;;;;;;;;4.78;100.00;99915.38;6277601;22;20436;-81
2022/11/24 04:16:54;;;;;;;;;;;;;;;4.83;100.00;99917.59;6277824;22;19911;-85
2022/11/24 04:19:19;;;;;;;;;;;;;;;4.99;100.00;99934.44;6277553;22;19911;-81
2022/11/24 04:21:44;;;;;;;;;;;;;;;4.90;100.00;99929.19;6277375;22;19912;-81
2022/11/24 04:24:10;;;;;;;;;;;;;;;5.10;100.00;99936.06;6277256;22;19915;-83
2022/11/24 04:26:38;;;;;;;;;;;;;;;5.15;100.00;99933.84;6277233;22;19911;-83
2022/11/24 04:29:03;;;;;;;;;;;;;;;5.00;100.00;99935.25;6277339;22;19918;-79
2022/11/24 04:31:29;;;;;;;;;;;;;;;5.16;100.00;99943.38;6277449;22;20346;-83
2022/11/24 04:33:55;;;;;;;;;;;;;;;5.26;100.00;99952.06;6278035;22;19907;-81
2022/11/24 04:36:20;;;;;;;;;;;;;;;5.19;100.00;99958.84;6278192;22;19993;-83
2022/11/24 04:38:46;;;;;;;;;;;;;;;5.17;100.00;99971.31;6278264;22;19922;-82
2022/11/24 04:41:11;;;;;;;;;;;;;;;5.21;100.00;99970.03;6277965;22;20038;-81
2022/11/24 04:43:36;;;;;;;;;;;;;;;5.20;100.00;99968.41;6277501;22;19992;-79
2022/11/24 04:46:02;;;;;;;;;;;;;;;5.17;100.00;99981.81;6277449;22;19911;-81
2022/11/24 04:48:28;;;;;;;;;;;;;;;4.94;100.00;99981.28;6251045;22;19911;-82
2022/11/24 04:50:53;;;;;;;;;;;;;;;4.74;100.00;99982.25;6285770;22;19915;-83
2022/11/24 04:53:19;;;;;;;;;;;;;;;4.62;100.00;99984.19;6278576;22;20238;-84
2022/11/24 04:55:44;;;;;;;;;;;;;;;4.60;100.00;99991.38;6251246;22;19911;-84
2022/11/24 04:58:10;;;;;;;;;;;;;;;4.87;100.00;99987.25;6277793;22;19911;-84
2022/11/24 05:00:36;;;;;;;;;;;;;;;4.74;100.00;99992.75;6277780;22;19915;-82
2022/11/24 05:03:02;;;;;;;;;;;;;;;4.65;100.00;99998.81;6278360;22;20338;-83
2022/11/24 05:05:27;;;;;;;;;;;;;;;4.52;100.00;99999.09;6278101;22;19983;-80
2022/11/24 05:07:52;;;;;;;;;;;;;;;4.77;100.00;99996.91;6277234;22;19916;-79
2022/11/24 05:10:36;;;;;;;;;;;;;;;4.92;100.00;99990.25;6276943;22;19957;-82
2022/11/24 05:13:03;;;;;;;;;;;;;;;5.00;100.00;100003.53;6277429;22;19914;-81
2022/11/24 05:15:29;;;;;;;;;;;;;;;4.99;100.00;100001.88;6277335;22;19993;-78
2022/11/24 05:17:55;;;;;;;;;;;;;;;4.93;100.00;99998.00;6277192;22;20246;-82
2022/11/24 05:20:21;;;;;;;;;;;;;;;4.76;100.00;100016.25;6277198;22;19911;-80
2022/11/24 05:22:46;;;;;;;;;;;;;;;4.91;100.00;100020.09;6276918;22;19922;-80
2022/11/24 05:25:13;;;;;;;;;;;;;;;4.99;100.00;100026.34;6276638;22;19911;-79
2022/11/24 05:27:38;;;;;;;;;;;;;;;4.77;100.00;100033.66;6276728;22;19918;-79
2022/11/24 05:30:04;;;;;;;;;;;;;;;4.79;100.00;100036.97;6276745;22;19911;-81
2022/11/24 05:32:30;;;;;;;;;;;;;;;4.86;100.00;100048.59;6279795;22;19953;-82
2022/11/24 05:34:55;;;;;;;;;;;;;;;4.89;100.00;100054.38;6253738;22;20297;-79
2022/11/24 05:37:21;;;;;;;;;;;;;;;5.09;100.00;100063.09;6277007;22;19919;-80
2022/11/24 05:39:46;;;;;;;;;;;;;;;4.84;100.00;100063.66;6277639;22;19907;-80
2022/11/24 05:44:56;;;;;;;;;;;;;;;4.66;100.00;100069.56;6277190;22;19918;-79
2022/11/24 05:47:22;;;;;;;;;;;;;;;4.80;100.00;100080.63;6277209;22;19911;-79
2022/11/24 05:49:47;;;;;;;;;;;;;;;4.83;100.00;100080.38;6281283;22;19915;-78
2022/11/24 05:52:15;;;;;;;;;;;;;;;4.90;100.00;100092.81;6280384;22;19907;-79
2022/11/24 05:54:41;;;;;;;;;;;;;;;4.83;100.00;100093.50;6293209;22;19899;-79
2022/11/24 05:57:06;;;;;;;;;;;;;;;4.71;100.00;100086.72;6301507;22;19896;-79
2022/11/24 05:59:31;;;;;;;;;;;;;;;4.60;100.00;100091.09;6302793;22;19955;-80
2022/11/24 06:01:57;;;;;;;;;;;;;;;4.65;100.00;100088.88;6295898;22;19996;-79
2022/11/24 06:04:22;;;;;;;;;;;;;;;4.48;100.00;100086.91;6288882;22;19907;-80
2022/11/24 06:06:48;;;;;;;;;;;;;;;4.63;100.00;100090.00;6289909;22;19915;-79
2022/11/24 06:09:13;;;;;;;;;;;;;;;4.53;100.00;100092.59;6282989;22;20360;-82
2022/11/24 06:11:38;;;;;;;;;;;;;;;4.43;100.00;100094.38;6279222;22;19911;-81
2022/11/24 06:14:04;;;;;;;;;;;;;;;4.50;100.00;100095.50;6277890;22;20338;-80
2022/11/24 06:16:29;;;;;;;;;;;;;;;4.54;100.00;100094.25;6279525;22;19918;-80
2022/11/24 06:18:54;;;;;;;;;;;;;;;4.51;100.00;100107.63;6278378;22;20329;-83
2022/11/24 06:21:20;;;;;;;;;;;;;;;4.41;100.00;100109.38;6279560;22;20022;-80
2022/11/24 06:23:48;;;;;;;;;;;;;;;4.41;100.00;100109.38;6279563;22;19941;-81
2022/11/24 06:26:14;;;;;;;;;;;;;;;4.20;100.00;100108.63;6279621;22;19910;-83
2022/11/24 06:28:39;;;;;;;;;;;;;;;3.75;100.00;100107.28;6285830;22;20250;-83
2022/11/24 06:31:05;;;;;;;;;;;;;;;3.47;100.00;100112.22;6289477;22;19911;-80
2022/11/24 06:33:34;;;;;;;;;;;;;;;3.50;100.00;100114.59;6286793;22;19911;-82
2022/11/24 06:36:06;;;;;;;;;;;;;;;3.48;100.00;100113.84;6269064;22;19915;-81
2022/11/24 06:38:33;;;;;;;;;;;;;;;3.61;100.00;100117.13;6287271;22;19911;-82
2022/11/24 06:40:59;;;;;;;;;;;;;;;3.68;100.00;100132.34;6264802;22;19911;-82
2022/11/24 06:43:25;;;;;;;;;;;;;;;4.12;100.00;100127.63;6256605;22;19918;-82
2022/11/24 06:45:51;;;;;;;;;;;;;;;4.30;100.00;100127.88;6289404;22;19907;-82
2022/11/24 06:48:16;;;;;;;;;;;;;;;4.39;100.00;100126.22;6279663;22;19950;-84
2022/11/24 06:50:42;;;;;;;;;;;;;;;4.62;100.00;100136.41;6278249;22;19914;-81
2022/11/24 06:53:07;;;;;;;;;;;;;;;4.94;100.00;100130.13;6278929;22;19966;-83
2022/11/24 06:55:33;;;;;;;;;;;;;;;5.20;100.00;100145.22;6278705;22;19912;-82
2022/11/24 06:57:58;;;;;;;;;;;;;;;5.26;100.00;100151.72;6277842;22;19911;-82
2022/11/24 07:00:24;;;;;;;;;;;;;;;5.25;100.00;100157.94;6277621;22;19911;-84
2022/11/24 07:02:49;;;;;;;;;;;;;;;5.27;100.00;100163.06;6250736;22;19908;-85
2022/11/24 07:05:14;;;;;;;;;;;;;;;5.72;100.00;100175.53;6276497;22;19916;-80
2022/11/24 07:07:40;;;;;;;;;;;;;;;6.69;100.00;100178.78;6276587;22;19918;-80
2022/11/24 07:10:05;;;;;;;;;;;;;;;7.08;100.00;100182.03;6277520;22;19939;-83
2022/11/24 07:12:34;;;;;;;;;;;;;;;7.59;100.00;100187.47;6275667;22;19949;-82
2022/11/24 07:14:59;;;;;;;;;;;;;;;7.42;100.00;100185.69;6277675;22;19938;-80
2022/11/24 07:17:25;;;;;;;;;;;;;;;7.65;100.00;100186.06;6250640;22;20331;-81
2022/11/24 07:19:50;;;;;;;;;;;;;;;7.95;100.00;100182.19;6277000;22;19911;-80
2022/11/24 07:22:15;;;;;;;;;;;;;;;7.78;100.00;100181.22;6276932;22;20220;-80
2022/11/24 07:24:41;;;;;;;;;;;;;;;8.30;100.00;100180.31;6276248;22;19918;-81
2022/11/24 07:27:06;;;;;;;;;;;;;;;7.72;100.00;100187.91;6275838;22;19956;-81
2022/11/24 07:29:31;;;;;;;;;;;;;;;8.15;100.00;100202.13;6277119;22;19911;-83
2022/11/24 07:31:57;;;;;;;;;;;;;;;8.16;100.00;100206.41;6276487;22;20284;-84
2022/11/24 07:34:22;;;;;;;;;;;;;;;8.54;100.00;100215.75;6276899;22;19907;-82
2022/11/24 07:36:48;;;;;;;;;;;;;;;8.76;100.00;100218.69;6278982;22;20002;-81
2022/11/24 07:39:14;;;;;;;;;;;;;;;8.81;100.00;100219.06;6278118;22;19918;-80
2022/11/24 07:41:39;;;;;;;;;;;;;;;9.10;100.00;100223.97;6253489;22;19910;-85
2022/11/24 07:44:05;;;;;;;;;;;;;;;9.65;100.00;100229.53;6279074;22;20342;-83
2022/11/24 07:46:30;;;;;;;;;;;;;;;9.69;100.00;100241.47;6278045;22;19912;-82
2022/11/24 07:48:55;;;;;;;;;;;;;;;8.48;100.00;100230.44;6250627;22;19922;-83
2022/11/24 07:51:21;;;;;;;;;;;;;;;7.57;100.00;100231.63;6277669;22;19911;-81
2022/11/24 07:53:46;;;;;;;;;;;;;;;7.70;100.00;100232.09;6277671;22;19919;-84
2022/11/24 07:56:14;;;;;;;;;;;;;;;6.97;100.00;100237.53;6277830;22;19907;-81
2022/11/24 07:58:40;;;;;;;;;;;;;;;7.07;100.00;100228.63;6250345;22;19981;-83
2022/11/24 08:01:12;;;;;;;;;;;;;;;6.93;100.00;100238.78;6250799;22;20319;-83
2022/11/24 08:03:38;;;;;;;;;;;;;;;6.73;100.00;100230.16;6277268;22;19911;-82
2022/11/24 08:06:04;;;;;;;;;;;;;;;6.65;100.00;100238.78;6277798;22;20258;-82
2022/11/24 08:08:32;;;;;;;;;;;;;;;6.18;100.00;100240.56;6250270;22;19969;-82
2022/11/24 08:11:00;;;;;;;;;;;;;;;6.19;100.00;100250.13;6250203;22;20203;-83
2022/11/24 08:13:25;;;;;;;;;;;;;;;6.33;100.00;100259.34;6278037;22;19993;-85
2022/11/24 08:15:51;;;;;;;;;;;;;;;6.40;100.00;100260.47;6277860;22;19945;-83
2022/11/24 08:18:16;;;;;;;;;;;;;;;6.97;100.00;100256.81;6251375;22;19938;-84
2022/11/24 08:20:42;;;;;;;;;;;;;;;7.04;100.00;100259.69;6278507;22;19913;-87
2022/11/24 08:23:07;;;;;;;;;;;;;;;6.97;100.00;100267.34;6273853;22;19927;-81
2022/11/24 08:25:33;;;;;;;;;;;;;;;6.80;100.00;100262.00;6264354;22;20326;-83
2022/11/24 08:27:58;;;;;;;;;;;;;;;7.05;100.00;100261.38;6278444;22;19923;-80
2022/11/24 08:30:24;;;;;;;;;;;;;;;6.73;100.00;100267.84;6286169;22;19895;-80
2022/11/24 08:32:50;;;;;;;;;;;;;;;7.10;100.00;100259.09;6283710;22;19918;-80
2022/11/24 08:35:15;;;;;;;;;;;;;;;6.97;100.00;100255.97;6274139;22;19935;-81
2022/11/24 08:37:40;;;;;;;;;;;;;;;6.85;100.00;100251.88;6247123;22;19911;-80
2022/11/24 08:40:06;;;;;;;;;;;;;;;6.68;100.00;100259.56;6279096;22;19907;-85
2022/11/24 08:42:32;;;;;;;;;;;;;;;6.78;100.00;100263.97;6270564;22;20230;-79
2022/11/24 08:44:57;;;;;;;;;;;;;;;6.93;100.00;100267.78;6242943;22;19911;-84
2022/11/24 08:47:22;;;;;;;;;;;;;;;6.68;100.00;100275.38;6270683;22;19922;-85
2022/11/24 08:49:48;;;;;;;;;;;;;;;6.76;100.00;100267.56;6242457;22;19915;-80
2022/11/24 08:52:15;;;;;;;;;;;;;;;6.64;100.00;100278.41;6269800;22;19918;-81
2022/11/24 08:54:43;;;;;;;;;;;;;;;6.80;100.00;100286.53;6215820;22;19990;-82
2022/11/24 08:57:08;;;;;;;;;;;;;;;6.82;100.00;100286.41;6271137;22;19951;-84
2022/11/24 08:59:34;;;;;;;;;;;;;;;6.97;100.00;100303.41;6270531;22;19985;-78
2022/11/24 09:01:59;;;;;;;;;;;;;;;6.86;100.00;100309.66;6245022;22;19907;-83
2022/11/24 09:04:24;;;;;;;;;;;;;;;7.19;100.00;100300.41;6270044;22;19918;-80
2022/11/24 09:06:50;;;;;;;;;;;;;;;7.36;100.00;100307.53;6272154;22;20338;-80
2022/11/24 09:09:15;;;;;;;;;;;;;;;7.21;100.00;100309.84;6271422;22;19926;-82
2022/11/24 09:11:40;;;;;;;;;;;;;;;7.24;100.00;100296.34;6269929;22;19911;-79
2022/11/24 09:14:06;;;;;;;;;;;;;;;7.27;100.00;100300.50;6243976;22;19957;-84
2022/11/24 09:16:31;;;;;;;;;;;;;;;7.40;100.00;100302.78;6271385;22;19964;-79
2022/11/24 09:19:01;;;;;;;;;;;;;;;7.38;100.00;100294.22;6270655;22;19911;-84
2022/11/24 09:21:27;;;;;;;;;;;;;;;7.58;100.00;100296.59;6243348;22;19915;-78
2022/11/24 09:23:53;;;;;;;;;;;;;;;7.49;100.00;100302.72;6243501;22;20040;-83
2022/11/24 09:26:23;;;;;;;;;;;;;;;7.77;100.00;100300.91;6270461;22;19961;-79
2022/11/24 09:28:49;;;;;;;;;;;;;;;7.79;100.00;100299.75;6242738;22;20029;-80
2022/11/24 09:31:16;;;;;;;;;;;;;;;7.90;100.00;100289.97;6270965;22;19915;-82
2022/11/24 09:33:41;;;;;;;;;;;;;;;8.09;100.00;100300.38;6246771;22;19921;-83
2022/11/24 09:36:08;;;;;;;;;;;;;;;8.09;100.00;100300.38;6234058;22;19947;-83
2022/11/24 09:38:33;;;;;;;;;;;;;;;7.75;100.00;100306.34;6247342;22;19911;-83
2022/11/24 09:41:18;;;;;;;;;;;;;;;7.55;100.00;100307.44;6274311;22;20035;-84
2022/11/24 09:43:52;;;;;;;;;;;;;;;7.46;100.00;100295.13;6274885;22;19911;-83
2022/11/24 09:46:21;;;;;;;;;;;;;;;7.71;100.00;100307.63;6273918;22;19927;-84
2022/11/24 09:48:49;;;;;;;;;;;;;;;8.06;100.00;100321.78;6274199;22;20299;-84
2022/11/24 09:51:15;;;;;;;;;;;;;;;8.20;100.00;100326.53;6273544;22;20434;-86
2022/11/24 09:53:44;;;;;;;;;;;;;;;8.32;100.00;100328.00;6246736;22;20256;-80
2022/11/24 09:56:15;;;;;;;;;;;;;;;8.29;100.00;100323.03;6273626;22;19981;-80
2022/11/24 09:58:44;;;;;;;;;;;;;;;8.22;100.00;100321.94;6274335;22;20370;-82
2022/11/24 10:01:14;;;;;;;;;;;;;;;8.01;100.00;100331.97;6272695;22;19965;-85
2022/11/24 10:03:43;;;;;;;;;;;;;;;7.98;100.00;100332.28;6272536;22;19957;-82
2022/11/24 10:06:18;;;;;;;;;;;;;;;8.16;100.00;100327.81;6272980;22;19915;-81
2022/11/24 10:08:52;;;;;;;;;;;;;;;8.35;100.00;100340.91;6272979;22;19919;-83
2022/11/24 10:11:27;;;;;;;;;;;;;;;8.38;100.00;100343.25;6272879;22;19915;-81
2022/11/24 10:14:12;;;;;;;;;;;;;;;8.33;100.00;100340.22;6274044;22;19919;-85
2022/11/24 10:16:37;;;;;;;;;;;;;;;8.44;100.00;100336.53;6273729;22;19994;-82
2022/11/24 10:19:13;;;;;;;;;;;;;;;8.28;100.00;100332.78;6274681;22;19930;-78
2022/11/24 10:21:39;;;;;;;;;;;;;;;8.43;100.00;100335.69;6247783;22;19911;-85
2022/11/24 10:24:17;;;;;;;;;;;;;;;8.42;100.00;100335.84;6275120;22;20357;-79
2022/11/24 10:27:05;;;;;;;;;;;;;;;8.39;100.00;100342.25;6276965;22;19911;-79
2022/11/24 10:29:41;;;;;;;;;;;;;;;8.37;100.00;100336.31;6269254;22;19911;-80
2022/11/24 10:32:11;;;;;;;;;;;;;;;8.36;100.00;100337.28;6283196;22;19952;-80
2022/11/24 10:34:39;;;;;;;;;;;;;;;8.39;100.00;100344.06;6284493;22;19973;-81
2022/11/24 10:37:04;;;;;;;;;;;;;;;8.58;100.00;100350.03;6289305;22;19918;-78
2022/11/24 10:39:39;;;;;;;;;;;;;;;8.77;100.00;100339.25;6292642;22;19911;-80
2022/11/24 10:42:14;;;;;;;;;;;;;;;8.91;100.00;100344.97;6278408;22;19930;-81
2022/11/24 10:44:41;;;;;;;;;;;;;;;9.10;100.00;100344.72;6277693;22;19918;-82
2022/11/24 10:47:16;;;;;;;;;;;;;;;9.07;100.00;100339.75;6247173;22;19911;-82
2022/11/24 10:49:43;;;;;;;;;;;;;;;9.22;100.00;100354.88;6273105;22;20275;-84
2022/11/24 10:52:12;;;;;;;;;;;;;;;9.24;100.00;100339.69;6270942;22;19907;-84
2022/11/24 10:54:57;;;;;;;;;;;;;;;9.25;100.00;100357.19;6243891;22;19993;-81
2022/11/24 10:57:26;;;;;;;;;;;;;;;9.34;100.00;100339.56;6272416;22;19985;-79
2022/11/24 10:59:51;;;;;;;;;;;;;;;9.39;100.00;100342.56;6245669;22;20298;-81
2022/11/24 11:02:26;;;;;;;;;;;;;;;9.28;100.00;100348.13;6273404;22;19918;-81
2022/11/24 11:04:51;;;;;;;;;;;;;;;9.28;100.00;100342.84;6248009;22;19919;-82
2022/11/24 11:07:18;;;;;;;;;;;;;;;9.35;100.00;100334.13;6276019;22;19961;-82
2022/11/24 11:09:44;;;;;;;;;;;;;;;9.38;100.00;100332.97;6274429;22;19965;-86
2022/11/24 11:12:17;;;;;;;;;;;;;;;9.58;100.00;100338.84;6271408;22;19907;-82
2022/11/24 11:14:42;;;;;;;;;;;;;;;9.49;100.00;100330.03;6270351;22;19911;-80
2022/11/24 11:17:27;;;;;;;;;;;;;;;9.56;100.00;100331.06;6244570;22;20421;-81
2022/11/24 11:20:00;;;;;;;;;;;;;;;9.86;100.00;100332.31;6272090;22;19938;-82
2022/11/24 11:22:29;;;;;;;;;;;;;;;9.73;100.00;100332.78;6271208;22;19908;-81
2022/11/24 11:25:21;;;;;;;;;;;;;;;9.79;100.00;100331.28;6270681;22;19930;-81
2022/11/24 11:27:47;;;;;;;;;;;;;;;9.81;100.00;100324.84;6265104;22;19911;-86
2022/11/24 11:30:26;;;;;;;;;;;;;;;9.79;100.00;100324.19;6216799;22;19933;-83
2022/11/24 11:32:56;;;;;;;;;;;;;;;9.82;100.00;100326.50;6270861;22;19911;-84
2022/11/24 11:35:26;;;;;;;;;;;;;;;10.02;100.00;100328.84;6271493;22;20390;-84
2022/11/24 11:38:05;;;;;;;;;;;;;;;10.02;100.00;100323.56;6245036;22;19931;-83
2022/11/24 11:40:31;;;;;;;;;;;;;;;10.19;100.00;100336.69;6270983;22;20025;-92
2022/11/24 11:43:22;;;;;;;;;;;;;;;10.25;100.00;100340.50;6285610;22;19911;-89
2022/11/24 11:46:50;;;;;;;;;;;;;;;;;;;;;
2022/11/24 11:49:31;;;;;;;;;;;;;;;;;;;;;
2022/11/24 11:52:28;;;;;;;;;;;;;;;10.47;100.00;100342.50;6282590;22;20358;-90
2022/11/24 11:55:22;;;;;;;;;;;;;;;10.49;100.00;100345.81;6230432;22;19917;-94
2022/11/24 11:57:55;;;;;;;;;;;;;;;10.48;100.00;100343.31;6231325;22;19911;-88
2022/11/24 12:00:21;;;;;;;;;;;;;;;10.63;100.00;100347.81;6232379;22;19899;-89
2022/11/24 12:03:10;;;;;;;;;;;;;;;10.66;100.00;100336.88;6238153;22;19986;-89
2022/11/24 12:05:59;;;;;;;;;;;;;;;10.73;100.00;100326.44;6235428;22;19938;-90
2022/11/24 12:08:33;;;;;;;;;;;;;;;10.76;100.00;100320.78;6253651;22;19993;-91
2022/11/24 12:11:12;;;;;;;;;;;;;;;10.68;100.00;100334.03;6258323;22;19911;-91
2022/11/24 12:14:06;;;;;;;;;;;;;;;10.62;100.00;100329.41;6254355;22;19923;-88
2022/11/24 12:16:37;;;;;;;;;;;;;;;10.75;100.00;100329.72;6279410;22;19915;-91
2022/11/24 12:19:12;;;;;;;;;;;;;;;10.72;100.00;100324.75;6230381;22;19918;-89
2022/11/24 12:22:01;;;;;;;;;;;;;;;10.84;100.00;100332.19;6253275;22;19922;-91
2022/11/24 12:24:54;;;;;;;;;;;;;;;10.87;100.00;100331.84;6254063;22;20311;-88
2022/11/24 12:27:50;;;;;;;;;;;;;;;10.87;100.00;100325.75;6256227;22;19965;-88
2022/11/24 12:30:17;;;;;;;;;;;;;;;11.02;100.00;100331.16;6252743;22;20254;-84
2022/11/24 12:32:52;;;;;;;;;;;;;;;10.98;100.00;100329.84;6229711;22;19919;-89
2022/11/24 12:35:27;;;;;;;;;;;;;;;11.06;100.00;100335.16;6251637;22;20295;-84
2022/11/24 12:38:11;;;;;;;;;;;;;;;10.84;100.00;100329.53;6225026;22;19942;-85
2022/11/24 12:40:56;;;;;;;;;;;;;;;10.89;100.00;100335.19;6276708;22;19911;-86
2022/11/24 12:43:30;;;;;;;;;;;;;;;10.86;100.00;100327.56;6274446;22;19915;-87
2022/11/24 12:46:28;;;;;;;;;;;;;;;10.78;100.00;100316.97;6274478;22;19918;-86
2022/11/24 12:49:12;;;;;;;;;;;;;;;10.98;100.00;100314.75;6209360;22;19911;-89
2022/11/24 12:51:40;;;;;;;;;;;;;;;10.81;100.00;100313.97;6249337;22;19915;-85
2022/11/24 12:54:11;;;;;;;;;;;;;;;10.96;100.00;100310.63;6275855;22;19914;-82